Attleboro Falls, Massachusetts
Current Conditions -  °F | °C
As of 3:15 AM on Saturday 20 Dec 2014 (Local Time) from KSFZ Reporting Station
Overcast Overcast  
Wind Chill: -8°   Ceiling: 2800
Heat Index: -3°   Visibility: 10mi
Dew Point: -8°   Wind: 9mph
Humidity: 69%   Direction: 360°N
Pressure: 30.15"   Gusts: NA
Location:  41.97°N, 71.32°W
Report Text: KSFZ 200815Z 36008KT 10SM OVC028 M03/M08 A3015 RMK AO1
Loading
Personal Weather Stations






























Interactive Weather Map New forecast layout! Learn more

10-Day Weather Forecast

Advertisements
Track Severe Weather on mobile